createdAt,value
2022-08-26T00:00:12.662Z,19.81
2022-08-26T00:01:12.642Z,19.79
2022-08-26T00:02:12.820Z,19.75
2022-08-26T00:03:12.666Z,19.70
2022-08-26T00:04:12.780Z,19.71
2022-08-26T00:05:12.620Z,19.82
2022-08-26T00:06:12.621Z,19.67
2022-08-26T00:07:12.618Z,19.68
2022-08-26T00:08:13.100Z,19.68
2022-08-26T00:09:12.641Z,19.72
2022-08-26T00:10:12.610Z,19.68
2022-08-26T00:11:12.582Z,19.60
2022-08-26T00:12:12.671Z,19.54
2022-08-26T00:13:12.568Z,19.67
2022-08-26T00:14:12.579Z,19.63
2022-08-26T00:15:12.569Z,19.56
2022-08-26T00:16:12.622Z,19.59
2022-08-26T00:17:12.568Z,19.56
2022-08-26T00:18:21.763Z,19.53
2022-08-26T00:19:12.543Z,19.53
2022-08-26T00:20:12.567Z,19.52
2022-08-26T00:21:12.523Z,19.53
2022-08-26T00:22:12.521Z,19.41
2022-08-26T00:23:13.529Z,19.41
2022-08-26T00:24:12.514Z,19.39
2022-08-26T00:25:12.544Z,19.44
2022-08-26T00:26:12.552Z,19.37
2022-08-26T00:27:12.497Z,19.38
2022-08-26T00:28:12.530Z,19.37
2022-08-26T00:29:12.557Z,19.32
2022-08-26T00:30:12.484Z,19.27
2022-08-26T00:31:12.518Z,19.31
2022-08-26T00:32:12.468Z,19.27
2022-08-26T00:33:12.467Z,19.20
2022-08-26T00:34:12.463Z,19.32
2022-08-26T00:35:12.447Z,19.16
2022-08-26T00:36:14.422Z,19.16
2022-08-26T00:37:16.138Z,19.05
2022-08-26T00:38:13.433Z,18.98
2022-08-26T00:39:12.442Z,19.08
2022-08-26T00:40:12.465Z,19.00
2022-08-26T00:41:12.485Z,19.08
2022-08-26T00:42:12.418Z,19.09
2022-08-26T00:43:12.426Z,18.88
2022-08-26T00:44:12.414Z,19.04
2022-08-26T00:45:12.410Z,19.01
2022-08-26T00:46:13.365Z,19.00
2022-08-26T00:47:12.457Z,18.94
2022-08-26T00:48:12.393Z,19.01
2022-08-26T00:49:12.541Z,18.96
2022-08-26T00:50:12.385Z,18.93
2022-08-26T00:51:12.458Z,18.96
2022-08-26T00:52:13.181Z,19.01
2022-08-26T00:53:12.366Z,18.96
2022-08-26T00:54:12.358Z,18.93
2022-08-26T00:55:12.337Z,19.05
2022-08-26T00:56:12.355Z,19.13
2022-08-26T00:57:16.401Z,19.05
2022-08-26T00:58:12.326Z,19.05
2022-08-26T00:59:12.333Z,18.96
2022-08-26T01:00:12.315Z,18.97
2022-08-26T01:01:12.323Z,19.00
2022-08-26T01:02:20.712Z,18.97
2022-08-26T01:03:13.321Z,18.89
2022-08-26T01:04:12.287Z,18.96
2022-08-26T01:05:12.290Z,18.94
2022-08-26T01:06:13.065Z,18.93
2022-08-26T01:07:12.286Z,18.94
2022-08-26T01:08:12.300Z,18.81
2022-08-26T01:09:12.270Z,18.83
2022-08-26T01:10:12.257Z,18.76
2022-08-26T01:11:12.257Z,18.81
2022-08-26T01:12:12.249Z,18.81
2022-08-26T01:13:12.261Z,18.74
2022-08-26T01:14:12.825Z,18.78
2022-08-26T01:15:12.631Z,18.71
2022-08-26T01:16:12.237Z,18.74
2022-08-26T01:17:12.218Z,18.83
2022-08-26T01:18:12.238Z,18.68
2022-08-26T01:19:12.236Z,18.67
2022-08-26T01:20:12.215Z,18.70
2022-08-26T01:21:12.209Z,18.76
2022-08-26T01:22:12.195Z,18.71
2022-08-26T01:23:12.206Z,18.60
2022-08-26T01:24:12.197Z,18.63
2022-08-26T01:25:12.205Z,18.68
2022-08-26T01:26:19.435Z,18.52
2022-08-26T01:27:13.162Z,18.67
2022-08-26T01:28:12.148Z,18.49
2022-08-26T01:29:12.165Z,18.43
2022-08-26T01:30:12.155Z,18.48
2022-08-26T01:31:12.187Z,18.38
2022-08-26T01:32:12.138Z,18.36
2022-08-26T01:33:12.136Z,18.38
2022-08-26T01:34:12.160Z,18.42
2022-08-26T01:35:12.118Z,18.31
2022-08-26T01:36:12.136Z,18.45
2022-08-26T01:37:15.491Z,18.33
2022-08-26T01:38:12.114Z,18.33
2022-08-26T01:39:12.092Z,18.34
2022-08-26T01:40:12.162Z,18.23
2022-08-26T01:41:19.522Z,18.33
2022-08-26T01:42:12.086Z,18.24
2022-08-26T01:43:12.794Z,18.41
2022-08-26T01:44:12.055Z,18.36
2022-08-26T01:45:12.093Z,18.36
2022-08-26T01:46:12.120Z,18.39
2022-08-26T01:47:12.187Z,18.28
2022-08-26T01:48:12.043Z,18.34
2022-08-26T01:49:12.039Z,18.28
2022-08-26T01:50:13.013Z,18.30
2022-08-26T01:51:12.014Z,18.28
2022-08-26T01:52:12.054Z,18.39
2022-08-26T01:53:12.226Z,18.21
2022-08-26T01:54:13.785Z,18.30
2022-08-26T01:55:12.077Z,18.24
2022-08-26T01:56:12.002Z,18.23
2022-08-26T01:57:12.002Z,18.23
2022-08-26T01:58:11.990Z,18.12
2022-08-26T01:59:12.255Z,18.18
2022-08-26T02:00:11.969Z,18.17
2022-08-26T02:01:11.987Z,18.12
2022-08-26T02:02:11.940Z,18.03
2022-08-26T02:03:12.060Z,18.08
2022-08-26T02:04:11.962Z,17.94
2022-08-26T02:05:11.922Z,17.97
2022-08-26T02:06:11.934Z,18.02
2022-08-26T02:07:12.924Z,17.99
2022-08-26T02:08:11.932Z,18.03
2022-08-26T02:09:11.933Z,17.91
2022-08-26T02:10:11.914Z,17.93
2022-08-26T02:11:11.902Z,17.88
2022-08-26T02:12:11.897Z,17.94
2022-08-26T02:13:11.894Z,17.93
2022-08-26T02:14:11.900Z,17.90
2022-08-26T02:15:12.877Z,17.84
2022-08-26T02:16:11.935Z,17.93
2022-08-26T02:17:11.872Z,17.87
2022-08-26T02:18:14.016Z,17.81
2022-08-26T02:19:11.853Z,17.84
2022-08-26T02:20:13.321Z,17.81
2022-08-26T02:21:11.857Z,17.83
2022-08-26T02:22:11.839Z,17.90
2022-08-26T02:23:11.825Z,17.78
2022-08-26T02:24:11.834Z,17.79
2022-08-26T02:25:11.844Z,17.81
2022-08-26T02:26:11.822Z,17.79
2022-08-26T02:27:11.822Z,17.73
2022-08-26T02:28:11.815Z,17.79
2022-08-26T02:29:11.807Z,17.76
2022-08-26T02:30:11.793Z,17.81
2022-08-26T02:31:11.872Z,17.81
2022-08-26T02:32:11.780Z,17.79
2022-08-26T02:33:11.779Z,17.86
2022-08-26T02:34:11.783Z,17.73
2022-08-26T02:35:11.780Z,17.71
2022-08-26T02:36:12.175Z,17.73
2022-08-26T02:37:11.745Z,17.79
2022-08-26T02:38:11.742Z,17.78
2022-08-26T02:39:11.738Z,17.62
2022-08-26T02:40:11.783Z,17.69
2022-08-26T02:41:11.726Z,17.69
2022-08-26T02:42:11.753Z,17.59
2022-08-26T02:43:11.707Z,17.66
2022-08-26T02:44:11.700Z,17.66
2022-08-26T02:45:11.703Z,17.68
2022-08-26T02:46:11.751Z,17.69
2022-08-26T02:47:12.872Z,17.65
2022-08-26T02:48:11.690Z,17.54
2022-08-26T02:49:11.676Z,17.59
2022-08-26T02:50:11.676Z,17.59
2022-08-26T02:51:11.661Z,17.66
2022-08-26T02:52:11.683Z,17.65
2022-08-26T02:53:11.779Z,17.54
2022-08-26T02:54:11.646Z,17.65
2022-08-26T02:55:11.642Z,17.54
2022-08-26T02:56:11.647Z,17.62
2022-08-26T02:57:11.689Z,17.59
2022-08-26T02:58:11.655Z,17.62
2022-08-26T02:59:11.624Z,17.57
2022-08-26T03:00:11.627Z,17.62
2022-08-26T03:01:11.680Z,17.66
2022-08-26T03:02:11.635Z,17.56
2022-08-26T03:03:11.611Z,17.71
2022-08-26T03:04:11.627Z,17.72
2022-08-26T03:05:11.593Z,17.63
2022-08-26T03:06:11.583Z,17.71
2022-08-26T03:07:11.593Z,17.71
2022-08-26T03:08:11.572Z,17.73
2022-08-26T03:09:15.975Z,17.86
2022-08-26T03:10:12.547Z,17.84
2022-08-26T03:11:11.562Z,17.79
2022-08-26T03:12:11.548Z,17.84
2022-08-26T03:13:11.584Z,17.83
2022-08-26T03:14:11.546Z,17.96
2022-08-26T03:15:17.423Z,17.90
2022-08-26T03:16:11.599Z,17.86
2022-08-26T03:17:11.528Z,17.86
2022-08-26T03:18:11.505Z,17.94
2022-08-26T03:19:11.505Z,18.02
2022-08-26T03:20:11.511Z,18.05
2022-08-26T03:21:11.501Z,18.06
2022-08-26T03:22:11.488Z,18.12
2022-08-26T03:23:11.493Z,18.08
2022-08-26T03:24:11.479Z,18.13
2022-08-26T03:25:11.487Z,18.03
2022-08-26T03:26:11.495Z,18.11
2022-08-26T03:27:11.503Z,18.09
2022-08-26T03:28:11.457Z,18.13
2022-08-26T03:29:11.431Z,18.13
2022-08-26T03:30:11.715Z,18.06
2022-08-26T03:31:11.503Z,18.08
2022-08-26T03:32:11.440Z,17.93
2022-08-26T03:33:11.402Z,17.97
2022-08-26T03:34:11.453Z,18.11
2022-08-26T03:35:11.415Z,18.06
2022-08-26T03:36:11.442Z,18.01
2022-08-26T03:37:11.439Z,17.97
2022-08-26T03:38:11.400Z,17.99
2022-08-26T03:39:11.399Z,17.87
2022-08-26T03:40:11.449Z,17.94
2022-08-26T03:41:11.386Z,17.91
2022-08-26T03:42:11.483Z,17.94
2022-08-26T03:43:11.386Z,17.90
2022-08-26T03:44:11.378Z,17.84
2022-08-26T03:45:11.353Z,17.84
2022-08-26T03:46:11.358Z,17.83
2022-08-26T03:47:11.348Z,17.75
2022-08-26T03:48:11.373Z,17.68
2022-08-26T03:49:11.361Z,17.79
2022-08-26T03:50:11.328Z,17.83
2022-08-26T03:51:11.327Z,17.76
2022-08-26T03:52:11.859Z,17.71
2022-08-26T03:53:12.844Z,17.75
2022-08-26T03:54:11.313Z,17.76
2022-08-26T03:55:11.293Z,17.69
2022-08-26T03:56:11.304Z,17.73
2022-08-26T03:57:11.294Z,17.78
2022-08-26T03:58:11.292Z,17.63
2022-08-26T03:59:11.290Z,17.69
2022-08-26T04:00:11.281Z,17.72
2022-08-26T04:01:11.266Z,17.65
2022-08-26T04:02:11.460Z,17.69
2022-08-26T04:03:14.721Z,17.62
2022-08-26T04:04:15.527Z,17.57
2022-08-26T04:05:11.250Z,17.57
2022-08-26T04:06:11.223Z,17.57
2022-08-26T04:07:11.240Z,17.57
2022-08-26T04:08:11.237Z,17.56
2022-08-26T04:09:11.217Z,17.47
2022-08-26T04:10:11.321Z,17.46
2022-08-26T04:11:11.209Z,17.46
2022-08-26T04:12:11.208Z,17.45
2022-08-26T04:13:11.180Z,17.46
2022-08-26T04:14:11.176Z,17.46
2022-08-26T04:15:11.285Z,17.45
2022-08-26T04:16:11.773Z,17.47
2022-08-26T04:17:11.167Z,17.49
2022-08-26T04:18:11.172Z,17.41
2022-08-26T04:19:11.169Z,17.50
2022-08-26T04:20:11.135Z,17.45
2022-08-26T04:21:11.166Z,17.53
2022-08-26T04:22:11.145Z,17.49
2022-08-26T04:23:11.133Z,17.45
2022-08-26T04:24:12.238Z,17.50
2022-08-26T04:25:12.117Z,17.49
2022-08-26T04:26:11.130Z,17.47
2022-08-26T04:27:11.109Z,17.45
2022-08-26T04:28:11.114Z,17.35
2022-08-26T04:29:11.089Z,17.28
2022-08-26T04:30:11.102Z,17.25
2022-08-26T04:31:11.100Z,17.20
2022-08-26T04:32:11.211Z,17.20
2022-08-26T04:33:13.029Z,17.34
2022-08-26T04:34:11.231Z,17.34
2022-08-26T04:35:11.064Z,17.41
2022-08-26T04:36:11.056Z,17.47
2022-08-26T04:37:11.094Z,17.39
2022-08-26T04:38:11.039Z,17.45
2022-08-26T04:39:11.031Z,17.39
2022-08-26T04:40:11.081Z,17.47
2022-08-26T04:41:15.437Z,17.56
2022-08-26T04:42:11.028Z,17.46
2022-08-26T04:43:11.033Z,17.52
2022-08-26T04:44:11.010Z,17.45
2022-08-26T04:45:11.709Z,17.39
2022-08-26T04:46:11.071Z,17.41
2022-08-26T04:47:10.995Z,17.43
2022-08-26T04:48:11.130Z,17.53
2022-08-26T04:49:10.980Z,17.45
2022-08-26T04:50:11.120Z,17.50
2022-08-26T04:51:10.979Z,17.38
2022-08-26T04:52:10.962Z,17.41
2022-08-26T04:53:11.982Z,17.50
2022-08-26T04:54:10.956Z,17.47
2022-08-26T04:55:10.968Z,17.59
2022-08-26T04:56:10.955Z,17.53
2022-08-26T04:57:10.943Z,17.50
2022-08-26T04:58:10.957Z,17.62
2022-08-26T04:59:16.918Z,17.52
2022-08-26T05:00:11.912Z,17.62
2022-08-26T05:01:10.990Z,17.62
2022-08-26T05:02:10.927Z,17.62
2022-08-26T05:03:10.912Z,17.57
2022-08-26T05:04:10.969Z,17.66
2022-08-26T05:05:10.890Z,17.71
2022-08-26T05:06:10.884Z,17.57
2022-08-26T05:07:10.882Z,17.69
2022-08-26T05:08:11.364Z,17.59
2022-08-26T05:09:10.867Z,17.69
2022-08-26T05:10:11.007Z,17.72
2022-08-26T05:11:10.853Z,17.69
2022-08-26T05:12:10.863Z,17.68
2022-08-26T05:13:12.642Z,17.75
2022-08-26T05:14:10.839Z,17.73
2022-08-26T05:15:10.935Z,17.76
2022-08-26T05:16:11.570Z,17.68
2022-08-26T05:17:10.832Z,17.76
2022-08-26T05:18:10.822Z,17.68
2022-08-26T05:19:10.815Z,17.68
2022-08-26T05:20:10.814Z,17.66
2022-08-26T05:21:10.830Z,17.66
2022-08-26T05:22:10.783Z,17.76
2022-08-26T05:23:10.832Z,17.84
2022-08-26T05:24:10.776Z,17.86
2022-08-26T05:25:10.762Z,17.76
2022-08-26T05:26:10.800Z,17.81
2022-08-26T05:27:11.787Z,17.79
2022-08-26T05:28:10.779Z,17.94
2022-08-26T05:29:10.751Z,17.90
2022-08-26T05:30:10.851Z,17.93
2022-08-26T05:31:10.793Z,18.01
2022-08-26T05:32:11.279Z,17.90
2022-08-26T05:33:10.900Z,17.99
2022-08-26T05:34:13.386Z,18.06
2022-08-26T05:35:10.724Z,18.06
2022-08-26T05:36:10.710Z,18.09
2022-08-26T05:37:10.738Z,18.09
2022-08-26T05:38:12.822Z,18.09
2022-08-26T05:39:11.697Z,18.08
2022-08-26T05:40:10.744Z,18.08
2022-08-26T05:41:10.697Z,18.11
2022-08-26T05:42:10.761Z,18.13
2022-08-26T05:43:10.687Z,18.12
2022-08-26T05:44:10.683Z,18.12
2022-08-26T05:45:10.658Z,18.15
2022-08-26T05:46:10.729Z,18.12
2022-08-26T05:47:10.669Z,18.13
2022-08-26T05:48:10.670Z,18.18
2022-08-26T05:49:12.587Z,18.09
2022-08-26T05:50:10.624Z,18.15
2022-08-26T05:51:10.618Z,18.13
2022-08-26T05:52:10.644Z,18.15
2022-08-26T05:53:10.615Z,18.24
2022-08-26T05:54:10.716Z,18.42
2022-08-26T05:55:10.599Z,18.51
2022-08-26T05:56:10.614Z,18.58
2022-08-26T05:57:10.603Z,18.64
2022-08-26T05:58:10.591Z,18.67
2022-08-26T05:59:14.206Z,18.81
2022-08-26T06:00:10.573Z,18.76
2022-08-26T06:01:10.647Z,18.88
2022-08-26T06:02:10.575Z,18.79
2022-08-26T06:03:10.943Z,19.08
2022-08-26T06:04:10.556Z,18.97
2022-08-26T06:05:10.552Z,19.07
2022-08-26T06:06:10.782Z,19.23
2022-08-26T06:07:12.111Z,19.23
2022-08-26T06:08:10.535Z,19.24
2022-08-26T06:09:11.142Z,19.27
2022-08-26T06:10:30.961Z,19.45
2022-08-26T06:11:18.531Z,19.45
2022-08-26T06:12:11.620Z,19.47
2022-08-26T06:13:12.121Z,19.44
2022-08-26T06:14:10.491Z,19.47
2022-08-26T06:15:10.487Z,19.41
2022-08-26T06:16:10.562Z,19.53
2022-08-26T06:17:11.379Z,19.59
2022-08-26T06:18:10.498Z,19.52
2022-08-26T06:19:11.650Z,19.38
2022-08-26T06:20:11.507Z,19.47
2022-08-26T06:21:10.440Z,19.47
2022-08-26T06:22:10.450Z,19.50
2022-08-26T06:23:10.510Z,19.41
2022-08-26T06:24:11.449Z,19.42
2022-08-26T06:25:10.468Z,19.52
2022-08-26T06:26:11.074Z,19.50
2022-08-26T06:27:11.364Z,19.49
2022-08-26T06:28:10.415Z,19.41
2022-08-26T06:29:10.435Z,19.38
2022-08-26T06:30:10.417Z,19.22
2022-08-26T06:31:10.462Z,19.07
2022-08-26T06:32:10.380Z,19.13
2022-08-26T06:33:10.471Z,19.23
2022-08-26T06:34:10.976Z,19.30
2022-08-26T06:35:12.071Z,19.38
2022-08-26T06:36:10.363Z,19.37
2022-08-26T06:37:10.363Z,19.22
2022-08-26T06:38:10.361Z,19.23
2022-08-26T06:39:10.352Z,19.39
2022-08-26T06:40:10.444Z,19.47
2022-08-26T06:41:10.335Z,19.37
2022-08-26T06:42:11.094Z,19.59
2022-08-26T06:43:10.320Z,19.71
2022-08-26T06:44:10.326Z,20.04
2022-08-26T06:45:10.438Z,19.93
2022-08-26T06:46:10.328Z,19.96
2022-08-26T06:47:10.321Z,20.07
2022-08-26T06:48:10.317Z,20.63
2022-08-26T06:49:10.288Z,21.37
2022-08-26T06:50:10.275Z,22.25
2022-08-26T06:51:11.331Z,23.01
2022-08-26T06:52:10.292Z,23.06
2022-08-26T06:53:10.267Z,23.28
2022-08-26T06:54:10.273Z,23.41
2022-08-26T06:55:10.798Z,23.44
2022-08-26T06:56:10.275Z,23.78
2022-08-26T06:57:10.277Z,24.04
2022-08-26T06:58:10.259Z,24.01
2022-08-26T06:59:10.239Z,23.94
2022-08-26T07:00:10.240Z,23.94
2022-08-26T07:01:11.630Z,23.97
2022-08-26T07:02:10.420Z,24.38
2022-08-26T07:03:11.482Z,24.82
2022-08-26T07:04:10.697Z,25.16
2022-08-26T07:05:10.217Z,25.40
2022-08-26T07:06:10.218Z,25.82
2022-08-26T07:07:10.227Z,26.26
2022-08-26T07:08:10.198Z,26.64
2022-08-26T07:09:10.231Z,26.75
2022-08-26T07:10:10.175Z,26.70
2022-08-26T07:11:10.210Z,26.63
2022-08-26T07:12:10.202Z,26.83
2022-08-26T07:13:10.157Z,27.19
2022-08-26T07:14:10.157Z,27.49
2022-08-26T07:15:11.155Z,27.80
2022-08-26T07:16:10.183Z,28.07
2022-08-26T07:17:13.852Z,28.10
2022-08-26T07:18:10.136Z,28.05
2022-08-26T07:19:10.796Z,27.93
2022-08-26T07:20:10.134Z,27.94
2022-08-26T07:21:10.125Z,27.97
2022-08-26T07:22:10.137Z,28.25
2022-08-26T07:23:10.146Z,28.56
2022-08-26T07:24:10.979Z,28.72
2022-08-26T07:25:10.098Z,29.18
2022-08-26T07:26:10.107Z,29.55
2022-08-26T07:27:10.105Z,29.43
2022-08-26T07:28:10.224Z,29.06
2022-08-26T07:29:10.099Z,29.47
2022-08-26T07:30:10.092Z,29.68
2022-08-26T07:31:10.115Z,30.08
2022-08-26T07:32:10.065Z,30.80
2022-08-26T07:33:10.075Z,31.19
2022-08-26T07:34:10.074Z,31.37
2022-08-26T07:35:10.067Z,31.17
2022-08-26T07:36:10.045Z,31.60
2022-08-26T07:37:10.047Z,31.56
2022-08-26T07:38:10.042Z,31.39
2022-08-26T07:39:10.060Z,31.24
2022-08-26T07:40:10.113Z,31.49
2022-08-26T07:41:10.022Z,31.56
2022-08-26T07:42:10.020Z,31.64
2022-08-26T07:43:10.183Z,31.07
2022-08-26T07:44:10.022Z,30.75
2022-08-26T07:45:09.987Z,30.52
2022-08-26T07:46:13.323Z,30.93
2022-08-26T07:47:25.136Z,31.42
2022-08-26T07:48:09.975Z,32.01
2022-08-26T07:49:10.035Z,32.24
2022-08-26T07:50:10.008Z,30.59
2022-08-26T07:51:09.979Z,30.45
2022-08-26T07:52:09.979Z,30.51
2022-08-26T07:53:10.817Z,30.08
2022-08-26T07:54:09.969Z,30.65
2022-08-26T07:55:10.935Z,31.29
2022-08-26T07:56:09.938Z,31.60
2022-08-26T07:57:09.932Z,31.11
2022-08-26T07:58:09.946Z,30.58
2022-08-26T07:59:13.593Z,29.13
2022-08-26T08:00:09.931Z,28.37
2022-08-26T08:01:10.122Z,27.27
2022-08-26T08:02:09.915Z,27.04
2022-08-26T08:03:10.122Z,26.89
2022-08-26T08:04:10.266Z,26.75
2022-08-26T08:05:09.970Z,27.88
2022-08-26T08:06:09.929Z,28.93
2022-08-26T08:07:11.508Z,29.61
2022-08-26T08:08:26.811Z,30.02
2022-08-26T08:09:10.880Z,30.36
2022-08-26T08:10:11.630Z,30.68
2022-08-26T08:11:10.889Z,29.78
2022-08-26T08:12:14.156Z,28.94
2022-08-26T08:13:09.995Z,28.40
2022-08-26T08:14:11.758Z,27.93
2022-08-26T08:15:09.843Z,27.69
2022-08-26T08:16:12.682Z,27.42
2022-08-26T08:17:09.930Z,27.05
2022-08-26T08:18:15.654Z,26.68
2022-08-26T08:19:09.828Z,26.88
2022-08-26T08:20:09.815Z,26.51
2022-08-26T08:21:23.783Z,26.45
2022-08-26T08:22:17.200Z,26.11
2022-08-26T08:23:10.804Z,26.39
2022-08-26T08:24:09.794Z,27.20
2022-08-26T08:25:10.436Z,27.42
2022-08-26T08:26:09.816Z,28.06
2022-08-26T08:27:09.799Z,27.76
2022-08-26T08:28:10.141Z,27.47
2022-08-26T08:29:09.784Z,27.50
2022-08-26T08:30:09.789Z,27.27
2022-08-26T08:31:09.821Z,26.83
2022-08-26T08:32:11.582Z,26.49
2022-08-26T08:33:10.789Z,26.46
2022-08-26T08:34:09.757Z,26.53
2022-08-26T08:35:11.074Z,26.82
2022-08-26T08:36:09.758Z,26.73
2022-08-26T08:37:10.905Z,27.05
2022-08-26T08:38:09.872Z,27.25
2022-08-26T08:39:09.855Z,27.22
2022-08-26T08:40:09.789Z,27.31
2022-08-26T08:41:09.732Z,27.15
2022-08-26T08:42:09.722Z,26.93
2022-08-26T08:43:10.015Z,26.85
2022-08-26T08:44:09.827Z,26.90
2022-08-26T08:45:09.690Z,26.94
2022-08-26T08:46:09.777Z,26.85
2022-08-26T08:47:09.705Z,26.75
2022-08-26T08:48:09.892Z,26.94
2022-08-26T08:49:09.698Z,26.80
2022-08-26T08:50:09.801Z,26.90
2022-08-26T08:51:09.681Z,26.82
2022-08-26T08:52:09.658Z,26.60
2022-08-26T08:53:09.666Z,26.51
2022-08-26T08:54:09.665Z,26.52
2022-08-26T08:55:11.138Z,26.65
2022-08-26T08:56:09.663Z,26.68
2022-08-26T08:57:09.643Z,26.80
2022-08-26T08:58:09.795Z,26.93
2022-08-26T08:59:09.653Z,27.08
2022-08-26T09:00:09.639Z,27.20
2022-08-26T09:01:09.885Z,27.31
2022-08-26T09:02:09.695Z,27.31
2022-08-26T09:03:09.651Z,27.22
2022-08-26T09:04:09.630Z,27.15
2022-08-26T09:05:09.601Z,27.00
2022-08-26T09:06:10.946Z,26.94
2022-08-26T09:07:09.739Z,26.98
2022-08-26T09:08:11.081Z,26.97
2022-08-26T09:09:09.668Z,26.98
2022-08-26T09:10:09.646Z,27.13
2022-08-26T09:11:09.654Z,27.23
2022-08-26T09:12:09.756Z,27.19
2022-08-26T09:13:09.591Z,27.20
2022-08-26T09:14:10.634Z,27.38
2022-08-26T09:15:09.619Z,27.60
2022-08-26T09:16:10.144Z,27.38
2022-08-26T09:17:09.840Z,27.30
2022-08-26T09:18:10.743Z,27.34
2022-08-26T09:19:09.546Z,27.40
2022-08-26T09:20:09.536Z,27.42
2022-08-26T09:21:09.535Z,27.42
2022-08-26T09:22:09.926Z,27.60
2022-08-26T09:23:09.782Z,27.70
2022-08-26T09:24:11.235Z,27.76
2022-08-26T09:25:11.176Z,27.83
2022-08-26T09:26:09.588Z,28.05
2022-08-26T09:27:11.475Z,28.09
2022-08-26T09:28:09.808Z,27.98
2022-08-26T09:29:09.509Z,28.00
2022-08-26T09:30:11.530Z,28.07
2022-08-26T09:31:11.457Z,28.27
2022-08-26T09:32:42.871Z,28.42
2022-08-26T09:33:11.104Z,28.44
2022-08-26T09:34:09.472Z,28.64
2022-08-26T09:35:09.454Z,28.65
2022-08-26T09:36:09.459Z,28.71
2022-08-26T09:37:09.448Z,28.91
2022-08-26T09:38:12.043Z,29.03
2022-08-26T09:39:09.559Z,29.03
2022-08-26T09:40:09.446Z,28.98
2022-08-26T09:41:09.419Z,29.12
2022-08-26T09:42:09.680Z,29.17
2022-08-26T09:43:09.414Z,29.28
2022-08-26T09:44:09.430Z,29.34
2022-08-26T09:45:10.392Z,29.52
2022-08-26T09:46:09.454Z,29.58
2022-08-26T09:47:09.409Z,29.86
2022-08-26T09:48:09.486Z,30.33
2022-08-26T09:49:09.399Z,30.58
2022-08-26T09:50:09.794Z,30.82
2022-08-26T09:51:09.371Z,31.11
2022-08-26T09:52:09.373Z,31.23
2022-08-26T09:53:10.007Z,31.29
2022-08-26T09:54:09.362Z,31.12
2022-08-26T09:55:09.354Z,31.22
2022-08-26T09:56:09.350Z,31.27
2022-08-26T09:57:09.351Z,31.89
2022-08-26T09:58:09.432Z,32.85
2022-08-26T09:59:10.892Z,33.49
2022-08-26T10:00:09.329Z,34.50
2022-08-26T10:01:09.401Z,35.26
2022-08-26T10:02:12.263Z,35.75
2022-08-26T10:03:09.645Z,36.25
2022-08-26T10:04:09.332Z,36.96
2022-08-26T10:05:09.871Z,37.20
2022-08-26T10:06:09.318Z,37.55
2022-08-26T10:07:09.296Z,37.30
2022-08-26T10:08:09.302Z,36.74
2022-08-26T10:09:09.785Z,37.19
2022-08-26T10:10:09.278Z,37.67
2022-08-26T10:11:09.277Z,37.62
2022-08-26T10:12:09.381Z,37.26
2022-08-26T10:13:09.449Z,37.22
2022-08-26T10:14:09.249Z,36.91
2022-08-26T10:15:09.263Z,37.07
2022-08-26T10:16:10.729Z,37.13
2022-08-26T10:17:09.353Z,37.34
2022-08-26T10:18:09.487Z,37.41
2022-08-26T10:19:09.224Z,37.42
2022-08-26T10:20:22.730Z,37.27
2022-08-26T10:21:09.237Z,36.81
2022-08-26T10:22:09.225Z,36.64
2022-08-26T10:23:09.331Z,36.47
2022-08-26T10:24:11.413Z,36.41
2022-08-26T10:25:09.184Z,35.95
2022-08-26T10:26:09.194Z,35.79
2022-08-26T10:27:09.188Z,35.61
2022-08-26T10:28:09.474Z,35.26
2022-08-26T10:29:09.204Z,33.92
2022-08-26T10:30:09.165Z,33.12
2022-08-26T10:31:09.156Z,32.63
2022-08-26T10:32:09.199Z,32.21
2022-08-26T10:33:09.279Z,31.94
2022-08-26T10:34:09.186Z,31.79
2022-08-26T10:35:09.157Z,31.95
2022-08-26T10:36:09.143Z,31.84
2022-08-26T10:37:16.002Z,31.63
2022-08-26T10:38:10.449Z,31.30
2022-08-26T10:39:09.158Z,31.23
2022-08-26T10:40:09.158Z,31.10
2022-08-26T10:41:10.364Z,30.60
2022-08-26T10:42:09.106Z,30.53
2022-08-26T10:43:11.407Z,30.59
2022-08-26T10:44:10.120Z,30.71
2022-08-26T10:45:11.895Z,30.36
2022-08-26T10:46:09.131Z,30.17
2022-08-26T10:47:09.086Z,30.14
2022-08-26T10:48:09.256Z,29.98
2022-08-26T10:49:09.075Z,29.99
2022-08-26T10:50:09.083Z,30.14
2022-08-26T10:51:09.072Z,30.02
2022-08-26T10:52:15.162Z,29.96
2022-08-26T10:53:10.044Z,29.89
2022-08-26T10:54:09.065Z,30.00
2022-08-26T10:55:09.147Z,30.08
2022-08-26T10:56:18.644Z,30.05
2022-08-26T10:57:10.025Z,30.03
2022-08-26T10:58:09.272Z,30.17
2022-08-26T10:59:10.376Z,30.13
2022-08-26T11:00:09.008Z,30.21
2022-08-26T11:01:10.199Z,30.24
2022-08-26T11:02:09.000Z,30.29
2022-08-26T11:03:09.556Z,30.30
2022-08-26T11:04:09.059Z,30.17
2022-08-26T11:05:09.004Z,30.15
2022-08-26T11:06:09.007Z,30.14
2022-08-26T11:07:08.976Z,30.15
2022-08-26T11:08:09.171Z,30.18
2022-08-26T11:09:08.962Z,30.13
2022-08-26T11:10:09.986Z,30.08
2022-08-26T11:11:08.960Z,30.10
2022-08-26T11:12:10.173Z,30.17
2022-08-26T11:13:09.085Z,30.18
2022-08-26T11:14:08.960Z,30.20
2022-08-26T11:15:08.936Z,30.17
2022-08-26T11:16:08.994Z,30.29
2022-08-26T11:17:08.959Z,30.13
2022-08-26T11:18:08.973Z,30.26
2022-08-26T11:19:08.919Z,30.32
2022-08-26T11:20:13.466Z,30.36
2022-08-26T11:21:10.341Z,30.32
2022-08-26T11:22:08.916Z,30.32
2022-08-26T11:23:08.937Z,30.35
2022-08-26T11:24:08.893Z,30.35
2022-08-26T11:25:11.469Z,30.39
2022-08-26T11:26:08.907Z,30.33
2022-08-26T11:27:08.980Z,30.30
2022-08-26T11:28:09.067Z,30.46
2022-08-26T11:29:13.217Z,30.36
2022-08-26T11:30:09.076Z,30.43
2022-08-26T11:31:08.925Z,30.37
2022-08-26T11:32:08.857Z,30.39
2022-08-26T11:33:09.065Z,30.36
2022-08-26T11:34:10.944Z,30.33
2022-08-26T11:35:08.855Z,30.29
2022-08-26T11:36:12.479Z,30.28
2022-08-26T11:37:08.862Z,30.45
2022-08-26T11:38:09.002Z,30.51
2022-08-26T11:39:08.929Z,30.46
2022-08-26T11:40:08.864Z,30.48
2022-08-26T11:41:08.815Z,30.55
2022-08-26T11:42:08.818Z,30.53
2022-08-26T11:43:08.776Z,30.39
2022-08-26T11:44:08.780Z,30.40
2022-08-26T11:45:08.790Z,30.29
2022-08-26T11:46:09.240Z,30.33
2022-08-26T11:47:11.463Z,30.22
2022-08-26T11:48:08.948Z,30.33
2022-08-26T11:49:08.813Z,30.40
2022-08-26T11:50:08.863Z,30.24
2022-08-26T11:51:08.741Z,30.33
2022-08-26T11:52:08.746Z,30.30
2022-08-26T11:53:08.745Z,30.20
2022-08-26T11:54:09.347Z,30.32
2022-08-26T11:55:08.735Z,30.17
2022-08-26T11:56:08.841Z,30.11
2022-08-26T11:57:11.693Z,30.10
2022-08-26T11:58:08.805Z,29.98
2022-08-26T11:59:08.760Z,29.83
2022-08-26T12:00:10.812Z,29.91
2022-08-26T12:01:09.826Z,29.86
2022-08-26T12:02:08.709Z,29.96
2022-08-26T12:03:08.912Z,29.99
2022-08-26T12:04:08.770Z,29.96
2022-08-26T12:05:08.679Z,30.05
2022-08-26T12:06:08.672Z,30.13
2022-08-26T12:07:09.779Z,30.10
2022-08-26T12:08:08.876Z,30.13
2022-08-26T12:09:08.705Z,30.24
2022-08-26T12:10:08.643Z,30.11
2022-08-26T12:11:08.656Z,30.18
2022-08-26T12:12:08.761Z,30.22
2022-08-26T12:13:08.629Z,30.35
2022-08-26T12:14:08.617Z,30.43
2022-08-26T12:15:08.609Z,30.32
2022-08-26T12:16:08.663Z,30.56
2022-08-26T12:17:08.607Z,30.65
2022-08-26T12:18:08.700Z,30.56
2022-08-26T12:19:08.600Z,30.73
2022-08-26T12:20:08.589Z,30.78
2022-08-26T12:21:08.596Z,30.89
2022-08-26T12:22:08.582Z,30.97
2022-08-26T12:23:08.711Z,31.04
2022-08-26T12:24:08.562Z,31.15
2022-08-26T12:25:08.575Z,31.19
2022-08-26T12:26:08.594Z,31.17
2022-08-26T12:27:08.580Z,31.14
2022-08-26T12:28:08.655Z,31.15
2022-08-26T12:29:20.363Z,31.14
2022-08-26T12:30:09.543Z,31.15
2022-08-26T12:31:08.541Z,31.39
2022-08-26T12:32:08.523Z,31.52
2022-08-26T12:33:22.674Z,31.70
2022-08-26T12:34:12.755Z,31.97
2022-08-26T12:35:08.553Z,32.23
2022-08-26T12:36:08.515Z,32.54
2022-08-26T12:37:08.521Z,32.60
2022-08-26T12:38:08.567Z,32.27
2022-08-26T12:39:08.490Z,32.08
2022-08-26T12:40:08.623Z,31.99
2022-08-26T12:41:08.624Z,32.14
2022-08-26T12:42:08.487Z,31.97
2022-08-26T12:43:08.484Z,31.98
2022-08-26T12:44:08.477Z,31.95
2022-08-26T12:45:08.582Z,32.04
2022-08-26T12:46:08.505Z,32.05
2022-08-26T12:47:08.453Z,32.20
2022-08-26T12:48:08.619Z,32.27
2022-08-26T12:49:08.455Z,32.24
2022-08-26T12:50:08.442Z,32.28
2022-08-26T12:51:08.457Z,32.57
2022-08-26T12:52:08.449Z,32.69